Time;durP1;ratioP1;P1;durP2;ratioP2;P2;SDS_P1;SDS_P2;PMS_P1;PMS_P2;Temp;Humidity;BMP_temperature;BMP_pressure;BME280_temperature;BME280_humidity;BME280_pressure;Samples;Min_cycle;Max_cycle;Signal;HPM_P1;HPM_P2
2022/06/27 00:00:47;;;;;;;;;2.00;2.00;;;;;19.43;100.00;101025.94;4975220;28;45477;-73
2022/06/27 00:03:13;;;;;;;;;3.67;3.00;;;;;19.38;100.00;101015.63;4993784;28;45585;-74
2022/06/27 00:05:38;;;;;;;;;1.33;1.33;;;;;19.35;100.00;101007.78;4996445;28;45837;-74
2022/06/27 00:08:04;;;;;;;;;5.33;3.67;;;;;19.29;100.00;101008.84;4975873;28;46439;-73
2022/06/27 00:10:29;;;;;;;;;3.00;3.00;;;;;19.26;100.00;101001.03;4996018;28;45799;-74
2022/06/27 00:12:55;;;;;;;;;3.67;3.00;;;;;19.21;100.00;101004.59;4993804;28;46954;-72
2022/06/27 00:15:21;;;;;;;;;3.00;3.00;;;;;19.15;100.00;100994.50;4991006;28;45803;-71
2022/06/27 00:17:46;;;;;;;;;7.33;4.33;;;;;19.11;100.00;100998.91;4999847;28;45384;-72
2022/06/27 00:20:12;;;;;;;;;8.67;6.00;;;;;19.07;100.00;101008.84;4991622;28;45633;-73
2022/06/27 00:22:38;;;;;;;;;4.00;4.00;;;;;19.00;100.00;101009.91;4989473;28;47713;-71
2022/06/27 00:25:04;;;;;;;;;4.33;4.33;;;;;18.99;100.00;101012.94;4993207;28;45726;-73
2022/06/27 00:27:30;;;;;;;;;18.33;12.00;;;;;18.96;100.00;101017.06;4986992;28;45678;-73
2022/06/27 00:29:56;;;;;;;;;4.67;3.67;;;;;18.93;100.00;101014.81;4989692;28;46739;-73
2022/06/27 00:32:23;;;;;;;;;3.00;3.00;;;;;18.90;100.00;101009.75;4978632;28;46212;-72
2022/06/27 00:34:49;;;;;;;;;8.00;5.00;;;;;18.86;100.00;101005.81;4996329;28;45372;-73
2022/06/27 00:37:15;;;;;;;;;7.67;6.33;;;;;18.81;100.00;100994.63;4995739;28;45474;-73
2022/06/27 00:39:41;;;;;;;;;7.33;6.33;;;;;18.79;100.00;100997.66;5000066;28;45795;-73
2022/06/27 00:42:06;;;;;;;;;9.00;7.33;;;;;18.55;100.00;100968.41;4976523;28;46256;-72
2022/06/27 00:44:41;;;;;;;;;3.67;2.67;;;;;18.69;100.00;100986.41;4997581;28;45384;-72
2022/06/27 00:47:09;;;;;;;;;3.33;3.33;;;;;18.71;100.00;100998.09;4968734;28;45366;-73
2022/06/27 00:49:35;;;;;;;;;6.33;6.33;;;;;18.64;100.00;100997.47;4997434;28;45561;-78
2022/06/27 00:52:03;;;;;;;;;12.33;9.67;;;;;18.69;100.00;101005.84;4995971;28;46101;-79
2022/06/27 00:54:29;;;;;;;;;11.67;9.33;;;;;18.65;100.00;101013.00;4989138;28;45468;-77
2022/06/27 00:56:54;;;;;;;;;22.33;16.33;;;;;18.66;100.00;101014.69;4991219;28;45770;-79
2022/06/27 00:59:20;;;;;;;;;6.00;6.00;;;;;18.68;100.00;101024.47;4993953;28;45652;-79
2022/06/27 01:01:46;;;;;;;;;4.67;4.67;;;;;18.67;100.00;101013.63;4989969;28;47178;-77
2022/06/27 01:04:11;;;;;;;;;6.33;6.33;;;;;18.67;100.00;101017.22;5001558;28;45850;-80
2022/06/27 01:06:37;;;;;;;;;13.33;10.33;;;;;18.67;100.00;101028.34;4976991;28;45854;-79
2022/06/27 01:09:03;;;;;;;;;3.33;3.33;;;;;18.65;100.00;101032.44;4994788;28;45420;-78
2022/06/27 01:11:30;;;;;;;;;6.33;5.33;;;;;18.66;100.00;101029.41;4989281;28;45659;-79
2022/06/27 01:13:57;;;;;;;;;12.00;9.67;;;;;18.63;100.00;101020.78;4994396;28;45846;-77
2022/06/27 01:16:23;;;;;;;;;2.67;2.67;;;;;18.67;100.00;101019.16;4994041;28;45526;-78
2022/06/27 01:18:49;;;;;;;;;3.67;3.67;;;;;18.72;100.00;101035.91;4996614;28;45877;-79
2022/06/27 01:21:26;;;;;;;;;3.67;3.00;;;;;18.72;100.00;101038.66;4995045;28;45629;-78
2022/06/27 01:23:51;;;;;;;;;5.67;4.33;;;;;18.60;100.00;101011.00;5000018;28;45787;-78
2022/06/27 01:26:18;;;;;;;;;10.67;9.00;;;;;18.73;100.00;101028.38;4997087;28;45416;-78
2022/06/27 01:28:45;;;;;;;;;5.33;4.00;;;;;18.73;100.00;101031.16;4997342;28;45766;-78
2022/06/27 01:31:14;;;;;;;;;1.00;1.00;;;;;18.69;100.00;101023.34;4979360;28;47098;-77
2022/06/27 01:33:40;;;;;;;;;6.00;4.67;;;;;18.73;100.00;101015.34;4991502;28;45713;-74
2022/06/27 01:38:52;;;;;;;;;4.67;4.33;;;;;18.74;100.00;101025.34;4988482;28;45659;-73
2022/06/27 01:41:17;;;;;;;;;6.00;6.00;;;;;18.75;100.00;101029.81;4992194;28;45738;-73
2022/06/27 01:43:44;;;;;;;;;7.33;7.33;;;;;18.75;100.00;101035.38;4988149;28;45830;-74
2022/06/27 01:46:10;;;;;;;;;7.33;6.33;;;;;18.76;100.00;101037.06;4994993;28;45964;-78
2022/06/27 01:48:38;;;;;;;;;9.00;8.00;;;;;18.78;100.00;101032.09;4977987;28;45865;-79
2022/06/27 01:51:03;;;;;;;;;3.00;3.00;;;;;18.80;100.00;101038.25;4995595;28;46800;-78
2022/06/27 01:53:29;;;;;;;;;6.00;4.67;;;;;18.80;100.00;101032.69;4977776;28;45891;-78
2022/06/27 01:55:55;;;;;;;;;8.00;5.00;;;;;18.67;100.00;101005.28;4995085;28;45927;-77
2022/06/27 01:58:21;;;;;;;;;3.00;3.00;;;;;18.83;100.00;101015.50;4994517;28;45743;-78
2022/06/27 02:00:46;;;;;;;;;3.00;3.00;;;;;18.79;100.00;101014.31;4994661;28;45562;-76
2022/06/27 02:03:13;;;;;;;;;4.00;3.67;;;;;18.84;100.00;101022.72;4994381;28;45779;-76
2022/06/27 02:05:40;;;;;;;;;2.67;2.33;;;;;18.84;100.00;101016.31;4993791;28;45510;-76
2022/06/27 02:08:08;;;;;;;;;4.00;3.00;;;;;18.84;100.00;101008.81;4994083;28;45716;-77
2022/06/27 02:10:34;;;;;;;;;3.00;3.00;;;;;18.81;100.00;101006.56;4977300;28;47828;-77
2022/06/27 02:13:00;;;;;;;;;3.00;3.00;;;;;18.81;100.00;101012.13;4977976;28;45856;-77
2022/06/27 02:15:25;;;;;;;;;3.00;2.00;;;;;18.81;100.00;101005.72;4995345;28;45724;-77
2022/06/27 02:17:51;;;;;;;;;3.00;3.00;;;;;18.73;100.00;100997.81;4994940;28;45761;-77
2022/06/27 02:20:16;;;;;;;;;3.67;2.33;;;;;18.74;100.00;100994.78;4994021;28;45378;-77
2022/06/27 02:22:42;;;;;;;;;3.33;2.00;;;;;18.76;100.00;100989.84;4995342;28;45416;-77
2022/06/27 02:25:08;;;;;;;;;1.00;1.00;;;;;18.75;100.00;100995.66;4976939;28;45401;-77
2022/06/27 02:27:35;;;;;;;;;5.67;3.33;;;;;18.73;100.00;101004.25;5007217;28;45786;-77
2022/06/27 02:30:01;;;;;;;;;4.00;3.00;;;;;18.75;100.00;101012.31;4989785;28;46345;-77
2022/06/27 02:32:28;;;;;;;;;4.00;4.00;;;;;18.73;100.00;101017.28;4978912;28;46313;-80
2022/06/27 02:34:56;;;;;;;;;2.00;2.00;;;;;18.61;100.00;101006.31;4999701;28;45412;-77
2022/06/27 02:37:24;;;;;;;;;2.00;2.00;;;;;18.62;100.00;101016.31;4995405;28;45577;-76
2022/06/27 02:39:52;;;;;;;;;2.00;2.00;;;;;18.58;100.00;101006.78;4982999;28;46966;-77
2022/06/27 02:42:20;;;;;;;;;3.00;3.00;;;;;18.61;100.00;101009.09;4993365;28;45824;-77
2022/06/27 02:44:48;;;;;;;;;3.67;3.67;;;;;18.70;100.00;101018.66;4994457;28;45758;-77
2022/06/27 02:47:14;;;;;;;;;3.00;3.00;;;;;18.73;100.00;101028.38;4990049;28;45448;-76
2022/06/27 02:49:40;;;;;;;;;1.67;1.67;;;;;18.66;100.00;101015.53;4977267;28;48142;-77
2022/06/27 02:52:09;;;;;;;;;2.00;2.00;;;;;18.79;100.00;101039.34;4972160;28;45453;-77
2022/06/27 02:54:47;;;;;;;;;1.33;1.33;;;;;18.71;100.00;101017.53;4982884;28;45464;-77
2022/06/27 02:57:32;;;;;;;;;4.67;2.33;;;;;18.85;100.00;101032.78;4980627;28;46808;-78
2022/06/27 03:00:00;;;;;;;;;2.67;2.67;;;;;18.88;100.00;101023.91;5000706;28;45462;-78
2022/06/27 03:02:26;;;;;;;;;0.67;0.67;;;;;18.77;100.00;100997.09;4997698;28;45591;-77
2022/06/27 03:04:54;;;;;;;;;2.33;1.33;;;;;18.96;100.00;101021.78;4993771;28;45460;-78
2022/06/27 03:07:20;;;;;;;;;2.00;2.00;;;;;18.97;100.00;101023.47;4998164;28;45436;-77
2022/06/27 03:09:46;;;;;;;;;1.00;1.00;;;;;19.02;100.00;101029.94;4980015;28;47604;-79
2022/06/27 03:12:11;;;;;;;;;1.00;1.00;;;;;19.06;100.00;101024.72;4982542;28;45378;-79
2022/06/27 03:14:37;;;;;;;;;1.33;1.00;;;;;19.06;100.00;101019.16;4980900;28;45422;-78
2022/06/27 03:17:03;;;;;;;;;2.33;1.33;;;;;19.05;100.00;101034.97;5000978;28;45653;-75
2022/06/27 03:19:28;;;;;;;;;2.00;2.00;;;;;19.04;100.00;101024.09;4979130;28;46318;-78
2022/06/27 03:21:54;;;;;;;;;1.00;1.00;;;;;19.03;100.00;101028.84;4994067;28;44797;-78
2022/06/27 03:24:20;;;;;;;;;1.00;1.00;;;;;19.03;100.00;101020.50;4996756;28;45887;-79
2022/06/27 03:26:45;;;;;;;;;2.67;2.33;;;;;19.04;100.00;101024.97;4987974;28;45444;-78
2022/06/27 03:29:11;;;;;;;;;1.33;1.33;;;;;19.02;100.00;101024.38;4997092;28;45820;-78
2022/06/27 03:31:36;;;;;;;;;1.00;1.00;;;;;19.01;100.00;101011.59;4992701;28;45379;-77
2022/06/27 03:34:02;;;;;;;;;1.00;1.00;;;;;19.07;100.00;101006.91;4998412;28;45766;-78
2022/06/27 03:36:27;;;;;;;;;2.67;2.00;;;;;19.09;100.00;101021.41;4978037;28;46446;-77
2022/06/27 03:38:53;;;;;;;;;1.67;1.67;;;;;19.09;100.00;101024.19;4992333;28;45733;-76
2022/06/27 03:41:19;;;;;;;;;2.00;0.67;;;;;19.02;100.00;101004.91;4983116;28;45754;-78
2022/06/27 03:43:44;;;;;;;;;2.33;2.33;;;;;19.09;100.00;101010.28;4977227;28;45850;-78
2022/06/27 03:46:10;;;;;;;;;4.00;3.00;;;;;19.09;100.00;100996.38;4994055;28;45681;-78
2022/06/27 03:51:19;;;;;;;;;4.33;3.00;;;;;19.06;100.00;101002.47;4994729;28;45834;-78
2022/06/27 03:53:45;;;;;;;;;3.00;3.00;;;;;19.07;100.00;101009.69;4990447;28;45244;-79
2022/06/27 03:56:11;;;;;;;;;4.00;2.67;;;;;19.08;100.00;101005.00;4990769;28;45340;-77
2022/06/27 03:58:36;;;;;;;;;2.00;2.00;;;;;18.96;100.00;100986.50;4992503;28;45806;-79
2022/06/27 04:01:03;;;;;;;;;3.00;3.00;;;;;19.07;100.00;101008.84;4991927;28;45972;-77
2022/06/27 04:03:29;;;;;;;;;2.33;2.00;;;;;19.07;100.00;101015.25;4993196;28;45754;-76
2022/06/27 04:05:54;;;;;;;;;3.00;2.00;;;;;19.05;100.00;101023.03;4996327;28;45384;-79
2022/06/27 04:08:20;;;;;;;;;1.67;1.67;;;;;19.06;100.00;101024.72;4978778;28;45793;-79
2022/06/27 04:10:46;;;;;;;;;1.00;1.00;;;;;19.09;100.00;101028.88;4990708;28;45904;-77
2022/06/27 04:13:11;;;;;;;;;2.33;2.33;;;;;19.06;100.00;101030.25;4991376;28;46457;-78
2022/06/27 04:15:37;;;;;;;;;2.00;2.00;;;;;19.09;100.00;101035.31;4988588;28;45525;-78
2022/06/27 04:18:03;;;;;;;;;1.67;1.67;;;;;19.13;100.00;101047.59;4974860;28;47065;-74
2022/06/27 04:20:28;;;;;;;;;2.00;2.00;;;;;19.10;100.00;101041.69;4988295;28;45831;-76
2022/06/27 04:22:53;;;;;;;;;3.00;3.00;;;;;19.13;100.00;101047.59;4994453;28;45341;-75
2022/06/27 04:25:19;;;;;;;;;3.00;2.00;;;;;19.20;100.00;101056.56;4994095;28;45574;-73
2022/06/27 04:27:44;;;;;;;;;4.33;3.00;;;;;19.20;100.00;101059.34;4993510;28;45389;-73
2022/06/27 04:30:16;;;;;;;;;4.00;2.00;;;;;19.26;100.00;101064.97;4994230;28;45431;-73
2022/06/27 04:32:43;;;;;;;;;14.33;10.33;;;;;19.11;100.00;101033.09;4994360;28;45881;-73
2022/06/27 04:35:09;;;;;;;;;19.00;18.67;;;;;19.30;100.00;101072.53;5007207;28;45675;-74
2022/06/27 04:37:34;;;;;;;;;24.33;15.67;;;;;19.33;100.00;101083.16;4994557;28;46115;-73
2022/06/27 04:39:59;;;;;;;;;10.00;7.33;;;;;19.33;100.00;101090.66;4985125;28;45464;-74
2022/06/27 04:42:25;;;;;;;;;8.33;8.33;;;;;19.34;100.00;101086.75;4995049;28;45565;-75
2022/06/27 04:44:51;;;;;;;;;4.67;4.67;;;;;19.36;100.00;101096.53;4994482;28;45309;-75
2022/06/27 04:47:17;;;;;;;;;5.00;5.00;;;;;19.43;100.00;101096.34;4994294;28;45376;-74
2022/06/27 04:49:42;;;;;;;;;3.33;3.00;;;;;19.47;100.00;101096.66;4976402;28;45802;-73
2022/06/27 04:52:08;;;;;;;;;6.67;6.33;;;;;19.52;100.00;101089.22;4993163;28;45539;-73
2022/06/27 04:54:38;;;;;;;;;6.67;4.67;;;;;19.53;100.00;101078.91;4975877;28;46263;-74
2022/06/27 04:57:05;;;;;;;;;3.67;3.67;;;;;19.60;100.00;101079.56;4991819;28;45864;-76
2022/06/27 04:59:31;;;;;;;;;4.00;3.33;;;;;19.57;100.00;101058.66;4994268;28;45625;-78
2022/06/27 05:01:57;;;;;;;;;1.00;1.00;;;;;19.61;100.00;101069.25;4986558;28;45590;-81
2022/06/27 05:04:24;;;;;;;;;2.00;2.00;;;;;19.68;100.00;101067.13;4982733;28;47291;-81
2022/06/27 05:06:50;;;;;;;;;5.00;3.33;;;;;19.68;100.00;101048.47;4975041;28;47097;-77
2022/06/27 05:09:16;;;;;;;;;3.00;3.00;;;;;19.75;100.00;101048.28;4974976;28;45773;-78
2022/06/27 05:11:44;;;;;;;;;2.00;2.00;;;;;19.88;100.00;101045.09;4982291;28;45530;-81
2022/06/27 05:14:10;;;;;;;;;1.33;1.33;;;;;19.98;100.00;101043.50;4988364;28;45612;-79
2022/06/27 05:16:36;;;;;;;;;5.00;2.00;;;;;20.03;100.00;101038.81;4998625;28;45423;-79
2022/06/27 05:19:02;;;;;;;;;3.67;1.67;;;;;20.07;100.00;101051.09;4967628;28;45778;-82
2022/06/27 05:21:28;;;;;;;;;1.00;1.00;;;;;20.20;100.00;101052.59;4989725;28;45407;-80
2022/06/27 05:23:53;;;;;;;;;1.00;1.00;;;;;20.29;100.00;101048.22;4979324;28;46944;-80
2022/06/27 05:26:19;;;;;;;;;2.00;2.00;;;;;20.27;100.00;101024.53;4992122;28;46691;-78
2022/06/27 05:28:45;;;;;;;;;2.00;1.00;;;;;20.50;100.00;101053.13;4995755;28;45895;-78
2022/06/27 05:31:10;;;;;;;;;5.00;2.00;;;;;20.60;100.00;101039.25;4996528;28;45379;-81
2022/06/27 05:34:02;;;;;;;;;1.00;1.00;;;;;20.75;100.00;101038.53;4985645;28;46337;-86
2022/06/27 05:36:28;;;;;;;;;1.00;1.00;;;;;21.15;100.00;101059.34;4988907;28;47642;-78
2022/06/27 05:38:55;;;;;;;;;1.00;1.00;;;;;22.37;100.00;101049.56;4997393;28;45395;-81
2022/06/27 05:41:21;;;;;;;;;2.00;2.00;;;;;23.07;100.00;101040.44;5001217;28;45756;-80
2022/06/27 05:43:46;;;;;;;;;3.67;2.00;;;;;23.24;100.00;101033.69;4998422;28;45556;-78
2022/06/27 05:46:12;;;;;;;;;2.00;2.00;;;;;23.29;100.00;101042.03;4977984;28;47158;-79
2022/06/27 05:48:38;;;;;;;;;1.00;1.00;;;;;23.23;100.00;101046.00;4995273;28;45467;-77
2022/06/27 05:51:04;;;;;;;;;3.00;1.33;;;;;23.14;100.00;101042.13;4980799;28;45421;-77
2022/06/27 05:53:30;;;;;;;;;2.00;2.00;;;;;23.05;100.00;101053.03;4977122;28;45961;-76
2022/06/27 05:55:55;;;;;;;;;1.00;1.00;;;;;22.86;100.00;101038.81;4993467;28;46197;-76
2022/06/27 05:58:22;;;;;;;;;2.00;2.00;;;;;22.79;100.00;101052.28;4991502;28;45401;-77
2022/06/27 06:00:47;;;;;;;;;2.00;1.00;;;;;22.73;100.00;101071.84;4973371;28;45796;-76
2022/06/27 06:03:13;;;;;;;;;1.00;1.00;;;;;22.74;100.00;101070.75;4975918;28;45876;-76
2022/06/27 06:05:40;;;;;;;;;2.00;1.00;;;;;22.85;100.00;101071.56;4993509;28;45788;-77
2022/06/27 06:08:06;;;;;;;;;2.00;2.00;;;;;22.97;100.00;101076.00;4992630;28;45982;-77
2022/06/27 06:10:33;;;;;;;;;1.00;1.00;;;;;22.96;100.00;101086.34;4994657;28;45483;-76
2022/06/27 06:13:03;;;;;;;;;1.00;1.00;;;;;22.90;100.00;101093.94;4994674;28;45863;-76
2022/06/27 06:15:30;;;;;;;;;2.33;1.67;;;;;22.84;100.00;101095.03;4992502;28;45864;-77
2022/06/27 06:17:56;;;;;;;;;2.00;2.00;;;;;22.60;100.00;101078.03;4993147;28;45745;-75
2022/06/27 06:20:22;;;;;;;;;2.33;2.00;;;;;22.62;100.00;101095.38;4991740;28;45627;-79
2022/06/27 06:22:47;;;;;;;;;1.00;1.00;;;;;22.58;100.00;101083.06;4994275;28;45859;-78
2022/06/27 06:25:13;;;;;;;;;2.00;2.00;;;;;22.37;100.00;101046.75;4989814;28;46406;-78
2022/06/27 06:27:40;;;;;;;;;3.67;3.33;;;;;22.45;100.00;101055.69;4992198;28;45933;-81
2022/06/27 06:30:07;;;;;;;;;1.33;1.33;;;;;22.51;100.00;101094.53;4989770;28;45442;-76
2022/06/27 06:32:34;;;;;;;;;1.33;1.33;;;;;23.14;100.00;101096.09;4975783;28;47561;-78
2022/06/27 06:35:00;;;;;;;;;1.00;1.00;;;;;23.60;100.00;101111.88;4993299;28;45654;-77
2022/06/27 06:37:27;;;;;;;;;3.33;2.00;;;;;23.94;100.00;101113.97;4980884;28;45181;-81
2022/06/27 06:39:54;;;;;;;;;2.33;2.33;;;;;24.21;100.00;101107.88;4972431;28;45810;-77
2022/06/27 06:42:19;;;;;;;;;2.67;2.00;;;;;24.27;100.00;101112.31;4992642;28;45602;-78
2022/06/27 06:44:46;;;;;;;;;4.67;2.67;;;;;24.13;100.00;101100.94;4996516;28;45585;-75
2022/06/27 06:47:12;;;;;;;;;2.67;1.00;;;;;24.18;100.00;101116.00;4998978;28;45824;-76
2022/06/27 06:49:39;;;;;;;;;2.00;2.00;;;;;24.31;100.00;101127.41;4989669;28;45455;-74
2022/06/27 06:52:05;;;;;;;;;1.00;1.00;;;;;25.42;100.00;101133.38;4996757;28;45730;-74
2022/06/27 06:54:31;;;;;;;;;3.75;2.00;;;;;27.33;100.00;101138.78;5004756;28;46191;-79
2022/06/27 06:56:58;;;;;;;;;0.00;0.00;;;;;28.33;100.00;101150.06;4974227;28;45559;-78
2022/06/27 06:59:23;;;;;;;;;1.50;1.00;;;;;29.38;100.00;101144.25;4978244;28;45495;-78
2022/06/27 07:01:50;;;;;;;;;1.00;1.00;;;;;30.44;94.05;101163.06;4987464;28;45719;-78
2022/06/27 07:04:16;;;;;;;;;3.00;2.00;;;;;30.97;87.29;101167.47;4983891;28;45736;-77
2022/06/27 07:06:42;;;;;;;;;1.25;1.25;;;;;31.27;82.87;101170.38;4974120;28;45467;-78
2022/06/27 07:09:08;;;;;;;;;0.75;0.75;;;;;31.67;79.50;101175.69;4976229;28;45730;-77
2022/06/27 07:11:36;;;;;;;;;1.50;1.50;;;;;31.44;78.74;101169.47;4997245;28;45483;-78
2022/06/27 07:14:02;;;;;;;;;2.75;0.75;;;;;31.21;80.42;101173.75;4997314;28;47119;-79
2022/06/27 07:16:29;;;;;;;;;0.25;0.25;;;;;30.95;80.35;101188.78;4997384;28;45814;-77
2022/06/27 07:18:56;;;;;;;;;2.00;2.00;;;;;30.76;80.85;101180.66;4996509;28;45693;-77
2022/06/27 07:21:23;;;;;;;;;3.00;1.75;;;;;30.53;80.60;101199.88;4996354;28;45665;-80
2022/06/27 07:23:50;;;;;;;;;2.00;0.25;;;;;30.00;82.09;101193.31;5000472;28;45746;-78
2022/06/27 07:26:17;;;;;;;;;10.33;6.67;;;;;29.48;84.61;101203.28;4994866;28;45788;-73
2022/06/27 07:28:44;;;;;;;;;2.00;2.00;;;;;28.75;87.25;101180.13;4992762;28;45386;-72
2022/06/27 07:31:12;;;;;;;;;3.50;2.00;;;;;28.35;89.89;101204.19;4990472;28;46696;-73
2022/06/27 07:33:45;;;;;;;;;3.75;2.00;;;;;27.81;93.42;101197.50;4993401;28;47555;-72
2022/06/27 07:36:14;;;;;;;;;1.50;1.50;;;;;27.30;96.15;101193.72;4978502;28;45525;-72
2022/06/27 07:38:41;;;;;;;;;2.25;2.25;;;;;26.87;98.36;101202.38;4998255;28;45329;-74
2022/06/27 07:41:12;;;;;;;;;0.00;0.00;;;;;26.47;100.00;101199.94;4996790;28;45824;-72
2022/06/27 07:43:37;;;;;;;;;1.33;1.33;;;;;26.22;100.00;101196.34;4995733;28;45684;-75
2022/06/27 07:46:03;;;;;;;;;1.00;1.00;;;;;25.77;100.00;101150.88;4994909;28;45774;-74
2022/06/27 07:48:32;;;;;;;;;1.50;1.25;;;;;25.86;100.00;101191.22;4996218;28;45710;-74
2022/06/27 07:50:58;;;;;;;;;3.00;0.50;;;;;25.82;100.00;101194.94;4993322;28;45743;-74
2022/06/27 07:53:26;;;;;;;;;0.67;0.67;;;;;25.93;100.00;101187.19;4995984;28;45843;-76
2022/06/27 07:55:54;;;;;;;;;4.00;1.00;;;;;26.63;100.00;101199.69;4997311;28;45590;-74
2022/06/27 07:58:26;;;;;;;;;2.33;2.00;;;;;27.54;100.00;101209.63;4978375;28;45580;-75
2022/06/27 08:00:54;;;;;;;;;2.25;1.25;;;;;28.90;92.70;101196.66;4978251;28;45953;-79
2022/06/27 08:06:27;;;;;;;;;3.00;2.00;;;;;31.48;77.41;101209.28;4903278;28;45791;-77
2022/06/27 08:08:59;;;;;;;;;1.00;1.00;;;;;31.70;74.60;101221.59;4897482;29;45604;-78
2022/06/27 08:11:29;;;;;;;;;1.00;1.00;;;;;31.56;72.02;101216.97;4941284;28;45418;-75
2022/06/27 08:13:57;;;;;;;;;1.75;1.00;;;;;31.34;73.11;101220.88;4976299;28;45514;-72
2022/06/27 08:16:24;;;;;;;;;2.00;2.00;;;;;31.13;72.74;101218.75;4971092;28;45568;-74
2022/06/27 08:18:51;;;;;;;;;2.50;1.00;;;;;31.04;71.70;101214.31;4974642;28;45424;-73
2022/06/27 08:21:20;;;;;;;;;1.50;1.50;;;;;30.74;71.70;101217.81;4973387;28;45553;-72
2022/06/27 08:23:48;;;;;;;;;1.00;1.00;;;;;30.16;74.37;101236.09;4969449;28;46593;-73
2022/06/27 08:26:14;;;;;;;;;1.50;1.50;;;;;29.55;78.32;101228.25;4968997;28;46490;-73
2022/06/27 08:28:42;;;;;;;;;0.00;0.00;;;;;28.84;81.15;101226.19;4970981;28;45495;-73
2022/06/27 08:31:10;;;;;;;;;1.00;1.00;;;;;28.29;83.51;101255.41;4970741;28;45761;-75
2022/06/27 08:33:36;;;;;;;;;1.00;1.00;;;;;27.57;88.21;101273.78;4971454;28;46882;-74
2022/06/27 08:36:04;;;;;;;;;1.25;1.00;;;;;26.92;95.37;101281.94;4976184;28;45892;-74
2022/06/27 08:38:32;;;;;;;;;1.00;1.00;;;;;26.25;100.00;101274.47;4955722;28;45477;-73
2022/06/27 08:40:58;;;;;;;;;3.00;1.00;;;;;25.76;100.00;101255.97;4975221;28;45477;-73
2022/06/27 08:43:26;;;;;;;;;3.00;2.00;;;;;25.44;100.00;101242.59;4972549;28;45522;-72
2022/06/27 08:45:52;;;;;;;;;5.67;2.33;;;;;25.76;100.00;101233.50;4968887;28;45640;-73
2022/06/27 08:48:18;;;;;;;;;1.33;1.33;;;;;27.42;100.00;101229.84;4967151;28;45787;-72
2022/06/27 08:50:45;;;;;;;;;2.00;2.00;;;;;29.54;100.00;101212.47;4970078;28;45901;-72
2022/06/27 08:53:12;;;;;;;;;15.00;12.67;;;;;30.46;99.66;101225.81;4975685;28;45740;-73
2022/06/27 08:55:42;;;;;;;;;2.00;2.00;;;;;30.98;91.92;101233.44;4970953;28;45474;-71
2022/06/27 08:58:10;;;;;;;;;1.25;1.25;;;;;32.51;83.52;101226.03;4972671;28;45409;-73
2022/06/27 09:00:41;;;;;;;;;2.00;1.25;;;;;34.35;73.77;101223.03;4955276;28;45730;-72
2022/06/27 09:03:07;;;;;;;;;1.00;1.00;;;;;35.95;58.91;101224.13;4972461;28;45606;-73
2022/06/27 09:05:34;;;;;;;;;2.00;2.00;;;;;36.10;55.19;101219.59;4985704;28;45565;-72
2022/06/27 09:08:05;;;;;;;;;1.00;1.00;;;;;36.12;48.20;101222.88;4988029;28;45432;-72
2022/06/27 09:10:42;;;;;;;;;1.00;1.00;;;;;35.83;47.03;101227.94;4989262;28;45545;-73
2022/06/27 09:13:12;;;;;;;;;2.00;1.25;;;;;35.44;49.09;101236.31;4986489;28;46184;-73
2022/06/27 09:15:37;;;;;;;;;2.75;2.00;;;;;35.16;53.31;101231.47;4975014;28;45767;-73
2022/06/27 09:18:06;;;;;;;;;1.25;1.25;;;;;35.30;51.70;101236.75;4974505;28;45926;-72
2022/06/27 09:20:50;;;;;;;;;1.67;1.67;;;;;36.84;51.05;101233.03;4989743;28;46814;-74
2022/06/27 09:23:40;;;;;;;;;2.00;1.00;;;;;38.09;44.90;101228.69;4991291;28;46334;-74
2022/06/27 09:26:10;;;;;;;;;1.50;1.50;;;;;39.92;39.58;101228.25;4993568;28;45541;-76
2022/06/27 09:28:39;;;;;;;;;2.00;0.75;;;;;41.79;33.00;101228.88;4993803;28;45451;-75
2022/06/27 09:31:10;;;;;;;;;0.00;0.00;;;;;43.48;28.77;101239.69;4974306;28;47057;-73
2022/06/27 09:33:37;;;;;;;;;1.00;1.00;;;;;45.11;27.03;101239.47;4974075;28;48175;-74
2022/06/27 09:36:11;;;;;;;;;1.00;1.00;;;;;46.60;24.76;101215.19;4975615;28;45622;-73
2022/06/27 09:38:40;;;;;;;;;2.00;1.00;;;;;47.95;22.54;101228.88;4990430;28;45446;-75
2022/06/27 09:41:09;;;;;;;;;1.75;1.75;;;;;49.16;20.09;101219.84;4989866;28;45862;-75
2022/06/27 09:43:40;;;;;;;;;1.00;1.00;;;;;50.29;19.17;101235.88;4993814;28;45963;-74
2022/06/27 09:46:06;;;;;;;;;1.00;1.00;;;;;51.23;18.31;101235.06;4993885;28;45995;-77
2022/06/27 09:48:32;;;;;;;;;1.33;1.00;;;;;52.04;16.06;101231.13;4995016;28;45547;-81
2022/06/27 09:50:58;;;;;;;;;3.67;3.67;;;;;52.71;17.09;101232.16;4994627;28;45924;-80
2022/06/27 09:53:27;;;;;;;;;1.00;1.00;;;;;53.32;15.74;101234.16;4996126;28;45961;-80
2022/06/27 09:55:54;;;;;;;;;1.33;0.67;;;;;53.60;14.83;101242.78;4988359;28;45732;-78
2022/06/27 09:58:20;;;;;;;;;0.00;0.00;;;;;53.93;14.91;101224.25;4977203;28;47037;-73
2022/06/27 10:00:47;;;;;;;;;0.33;0.33;;;;;54.48;14.30;101234.69;4994739;28;45811;-74
2022/06/27 10:03:13;;;;;;;;;0.33;0.33;;;;;54.96;13.92;101224.78;4990176;28;45863;-75
2022/06/27 10:05:40;;;;;;;;;1.00;1.00;;;;;55.35;12.48;101212.84;4971250;28;45719;-75
2022/06/27 10:08:05;;;;;;;;;0.33;0.33;;;;;55.52;12.43;101221.88;4988701;28;45757;-73
2022/06/27 10:11:10;;;;;;;;;1.00;0.67;;;;;55.38;13.24;101211.81;4989821;28;45824;-75
2022/06/27 10:13:38;;;;;;;;;1.00;1.00;;;;;55.42;12.57;101218.28;4986039;28;47101;-74
2022/06/27 10:16:15;;;;;;;;;1.00;0.00;;;;;55.37;12.95;101205.13;4973139;28;45802;-73
2022/06/27 10:19:03;;;;;;;;;0.33;0.00;;;;;55.42;12.21;101202.78;4976325;28;45707;-77
2022/06/27 10:21:36;;;;;;;;;0.00;0.00;;;;;55.28;11.47;101208.19;4969896;28;46167;-75
2022/06/27 10:24:23;;;;;;;;;0.00;0.00;;;;;55.17;12.15;101219.78;4990540;28;45554;-77
2022/06/27 10:26:51;;;;;;;;;1.00;1.00;;;;;55.04;11.70;101208.38;4977732;28;45843;-79
2022/06/27 10:29:29;;;;;;;;;0.33;0.00;;;;;54.86;11.96;101213.16;4985876;28;45967;-78
2022/06/27 10:31:55;;;;;;;;;1.00;1.00;;;;;54.88;11.51;101214.78;4985393;28;45754;-80
2022/06/27 10:34:39;;;;;;;;;1.00;1.00;;;;;54.91;11.51;101219.66;4986298;28;45777;-80
2022/06/27 10:37:26;;;;;;;;;1.00;1.00;;;;;54.74;11.45;101214.31;4972124;28;45561;-79
2022/06/27 10:40:20;;;;;;;;;0.00;0.00;;;;;54.31;11.76;101217.53;4989070;28;45598;-79
2022/06/27 10:42:51;;;;;;;;;0.00;0.00;;;;;54.03;11.08;101210.34;4989834;28;45752;-80
2022/06/27 10:45:19;;;;;;;;;0.00;0.00;;;;;53.88;11.13;101208.16;4981094;28;45759;-79
2022/06/27 10:47:52;;;;;;;;;2.33;1.00;;;;;53.70;11.43;101217.94;4990146;28;45481;-81
2022/06/27 10:50:21;;;;;;;;;1.33;0.67;;;;;53.34;11.52;101187.59;4970533;28;45648;-78
2022/06/27 10:52:47;;;;;;;;;1.67;0.33;;;;;53.23;11.49;101208.66;4970798;28;46115;-78
2022/06/27 10:55:23;;;;;;;;;1.00;1.00;;;;;52.83;12.29;101209.00;4986513;28;46520;-74
2022/06/27 10:57:51;;;;;;;;;0.00;0.00;;;;;51.83;12.09;101200.72;4986864;28;45904;-77
2022/06/27 11:00:37;;;;;;;;;1.00;0.00;;;;;50.66;12.44;101212.75;4989019;28;46122;-79
2022/06/27 11:03:04;;;;;;;;;1.00;1.00;;;;;49.68;12.92;101214.75;4968313;28;47147;-79
2022/06/27 11:05:50;;;;;;;;;1.00;1.00;;;;;49.72;12.96;101208.78;4985543;28;46244;-80
2022/06/27 11:08:16;;;;;;;;;1.00;1.00;;;;;48.99;12.83;101209.59;4970992;28;45826;-79
2022/06/27 11:10:44;;;;;;;;;2.00;1.00;;;;;48.92;12.80;101214.38;4991806;28;45487;-79
2022/06/27 11:13:10;;;;;;;;;0.67;0.67;;;;;48.72;12.91;101202.09;4976926;28;46567;-79
2022/06/27 11:15:36;;;;;;;;;1.00;0.00;;;;;48.24;13.16;101196.06;4980354;28;47470;-78
2022/06/27 11:18:07;;;;;;;;;0.00;0.00;;;;;47.62;13.53;101196.16;4993108;28;45404;-79
2022/06/27 11:20:32;;;;;;;;;1.00;1.00;;;;;46.90;13.83;101192.94;4994693;28;45789;-81
2022/06/27 11:23:00;;;;;;;;;0.67;0.67;;;;;46.24;13.90;101191.94;4995405;28;45626;-78
2022/06/27 11:25:28;;;;;;;;;1.00;1.00;;;;;45.35;14.71;101192.31;4991806;28;46500;-81
2022/06/27 11:27:58;;;;;;;;;0.00;0.00;;;;;44.48;15.21;101202.31;4971292;28;46086;-78
2022/06/27 11:33:36;;;;;;;;;0.25;0.00;;;;;42.11;16.96;101187.63;4989475;28;45696;-79